Time;durP1;ratioP1;P1;durP2;ratioP2;P2;SDS_P1;SDS_P2;PMS_P1;PMS_P2;Temp;Humidity;BMP_temperature;BMP_pressure;BME280_temperature;BME280_humidity;BME280_pressure;Samples;Min_cycle;Max_cycle;Signal;HPM_P1;HPM_P2
2021/08/24 09:21:42;;;;;;;8.27;3.40;;;;;;;;;;2115684;27;99913;-20
2021/08/24 09:22:44;;;;;;;11.77;3.60;;;;;;;;;;2114829;27;100218;-20
2021/08/24 09:23:45;;;;;;;9.32;3.10;;;;;;;;;;2121420;27;100109;-19
2021/08/24 09:24:47;;;;;;;10.98;3.25;;;;;;;;;;2122914;27;100100;-21
2021/08/24 09:26:13;;;;;;;14.10;3.00;;;;;;;;;;2122798;27;99878;-18
2021/08/24 09:27:43;;;;;;;9.65;3.25;;;;;;;;;;2123097;27;99868;-20
2021/08/24 09:28:47;;;;;;;12.63;3.30;;;;;;;;;;2122788;27;99974;-20
2021/08/24 09:29:49;;;;;;;9.38;2.97;;;;;;;;;;2123233;27;99977;-20
2021/08/24 09:30:52;;;;;;;10.65;3.28;;;;;;;;;;2122584;27;100746;-22
2021/08/24 09:31:53;;;;;;;8.80;3.33;;;;;;;;;;2123318;27;100434;-18
2021/08/24 09:33:01;;;;;;;9.10;2.97;;;;;;;;;;2123082;27;99975;-18
2021/08/24 09:34:03;;;;;;;10.55;3.63;;;;;;;;;;2123075;27;99912;-22
2021/08/24 09:35:10;;;;;;;12.52;2.92;;;;;;;;;;2123011;27;100147;-20
2021/08/24 09:36:11;;;;;;;12.77;3.40;;;;;;;;;;2116221;27;100081;-19
2021/08/24 09:37:21;;;;;;;;;;;;;;;;;;2096653;27;100111;-17
2021/08/24 09:38:27;;;;;;;9.10;3.13;;;;;;;;;;2097804;27;100271;-19
2021/08/24 09:39:51;;;;;;;11.35;3.20;;;;;;;;;;2111806;27;100216;-20
2021/08/24 09:40:55;;;;;;;7.20;3.08;;;;;;;;;;2114077;27;100197;-21
2021/08/24 09:42:07;;;;;;;10.05;3.15;;;;;;;;;;2114589;27;99935;-19
2021/08/24 09:43:35;;;;;;;12.00;3.28;;;;;;;;;;2114095;27;99973;-21
2021/08/24 09:44:35;;;;;;;11.48;3.33;;;;;;;;;;2116490;27;99958;-18
2021/08/24 09:45:36;;;;;;;;;;;;;;;;;;2117517;27;100559;-20
2021/08/24 09:46:38;;;;;;;8.55;2.60;;;;;;;;;;2120490;27;100042;-17
2021/08/24 09:47:39;;;;;;;8.77;3.20;;;;;;;;;;2114564;27;99899;-17
2021/08/24 09:48:55;;;;;;;14.77;3.35;;;;;;;;;;2114120;27;100220;-21
2021/08/24 09:50:05;;;;;;;11.10;3.40;;;;;;;;;;2114428;27;100003;-19
2021/08/24 09:51:19;;;;;;;17.35;3.65;;;;;;;;;;2114486;27;100175;-18
2021/08/24 09:52:24;;;;;;;14.65;3.47;;;;;;;;;;2114583;27;99872;-21
2021/08/24 09:53:34;;;;;;;11.55;3.15;;;;;;;;;;2104747;27;100072;-19
2021/08/24 09:54:49;;;;;;;14.10;3.10;;;;;;;;;;2106365;27;100139;-21
2021/08/24 09:55:51;;;;;;;9.98;3.38;;;;;;;;;;2114103;27;100153;-21
2021/08/24 09:56:57;;;;;;;15.52;3.30;;;;;;;;;;2107953;27;100072;-21
2021/08/24 09:58:01;;;;;;;10.70;3.25;;;;;;;;;;2105754;27;100133;-19
2021/08/24 09:59:02;;;;;;;10.80;3.35;;;;;;;;;;2114177;27;99855;-22
2021/08/24 10:00:26;;;;;;;9.57;3.47;;;;;;;;;;2117146;27;100180;-18
2021/08/24 10:01:44;;;;;;;11.18;3.17;;;;;;;;;;2070672;28;100085;-17
2021/08/24 10:02:58;;;;;;;12.65;3.42;;;;;;;;;;2106046;27;100477;-20
2021/08/24 10:04:08;;;;;;;13.13;3.20;;;;;;;;;;2105584;27;99806;-20
2021/08/24 10:05:09;;;;;;;11.57;3.40;;;;;;;;;;2111557;27;100293;-17
2021/08/24 10:06:24;;;;;;;11.38;3.15;;;;;;;;;;2114302;27;99890;-18
2021/08/24 10:07:35;;;;;;;16.73;3.25;;;;;;;;;;2113596;27;101575;-22
2021/08/24 10:08:37;;;;;;;16.45;3.70;;;;;;;;;;2122987;27;100019;-19
2021/08/24 10:09:40;;;;;;;10.88;2.92;;;;;;;;;;2114599;27;100071;-19
2021/08/24 10:10:40;;;;;;;14.60;3.65;;;;;;;;;;2114815;27;99994;-20
2021/08/24 10:11:41;;;;;;;;;;;;;;;;;;2115366;27;99846;-18
2021/08/24 10:12:46;;;;;;;8.25;2.90;;;;;;;;;;2114837;27;99783;-21
2021/08/24 10:13:47;;;;;;;10.05;3.10;;;;;;;;;;2113713;27;99974;-20
2021/08/24 10:14:50;;;;;;;11.55;3.25;;;;;;;;;;2114754;27;100088;-21
2021/08/24 10:15:51;;;;;;;7.20;3.00;;;;;;;;;;2114289;27;99991;-19
2021/08/24 10:16:56;;;;;;;9.90;3.83;;;;;;;;;;2114933;27;99897;-19
2021/08/24 10:17:57;;;;;;;8.88;3.45;;;;;;;;;;2114775;27;100007;-19
2021/08/24 10:19:11;;;;;;;;;;;;;;;;;;2115076;27;100552;-21
2021/08/24 10:20:18;;;;;;;8.93;2.72;;;;;;;;;;2114054;27;100875;-20
2021/08/24 10:21:53;;;;;;;7.72;3.13;;;;;;;;;;2114698;27;99947;-18
2021/08/24 10:22:54;;;;;;;8.30;2.80;;;;;;;;;;2065499;28;100373;-21
2021/08/24 10:23:58;;;;;;;11.77;3.03;;;;;;;;;;2066192;28;100077;-19
2021/08/24 10:25:16;;;;;;;7.68;2.97;;;;;;;;;;2109118;27;100046;-18
2021/08/24 10:26:26;;;;;;;7.85;3.20;;;;;;;;;;2109021;27;99893;-18
2021/08/24 10:27:58;;;;;;;7.55;2.88;;;;;;;;;;2109263;27;100292;-19
2021/08/24 10:29:03;;;;;;;10.82;3.03;;;;;;;;;;2108601;27;99911;-21
2021/08/24 10:30:09;;;;;;;10.57;3.00;;;;;;;;;;2108962;27;100238;-18
2021/08/24 10:31:24;;;;;;;8.50;3.42;;;;;;;;;;2108898;27;99837;-19
2021/08/24 10:32:31;;;;;;;7.50;3.33;;;;;;;;;;2108987;27;99880;-22
2021/08/24 10:33:34;;;;;;;15.23;3.70;;;;;;;;;;2108780;27;99875;-19
2021/08/24 10:34:40;;;;;;;7.95;2.85;;;;;;;;;;2108396;27;100244;-18
2021/08/24 10:35:42;;;;;;;6.20;3.22;;;;;;;;;;2109146;27;99863;-21
2021/08/24 10:36:46;;;;;;;8.45;3.38;;;;;;;;;;2108842;27;99964;-21
2021/08/24 10:37:49;;;;;;;10.05;3.45;;;;;;;;;;2109006;27;99843;-20
2021/08/24 10:39:04;;;;;;;8.27;3.33;;;;;;;;;;2108518;27;99945;-19
2021/08/24 10:40:07;;;;;;;7.55;2.95;;;;;;;;;;2108610;27;99944;-21
2021/08/24 10:41:38;;;;;;;8.60;3.47;;;;;;;;;;2108679;27;99857;-21
2021/08/24 10:42:57;;;;;;;9.05;3.22;;;;;;;;;;2108424;27;99823;-20
2021/08/24 10:44:01;;;;;;;7.15;2.92;;;;;;;;;;2109124;27;100031;-22
2021/08/24 10:45:46;;;;;;;6.53;3.30;;;;;;;;;;2108388;27;100045;-18
2021/08/24 10:47:18;;;;;;;8.93;3.03;;;;;;;;;;2090662;27;100010;-22
2021/08/24 10:48:21;;;;;;;7.82;3.08;;;;;;;;;;2108940;27;99960;-20
2021/08/24 10:49:22;;;;;;;9.38;3.30;;;;;;;;;;2108455;27;99904;-20
2021/08/24 10:50:43;;;;;;;7.22;3.20;;;;;;;;;;2108956;27;100030;-17
2021/08/24 10:51:56;;;;;;;9.10;3.47;;;;;;;;;;2108585;27;100261;-18
2021/08/24 10:53:08;;;;;;;8.48;3.15;;;;;;;;;;2109130;27;100023;-19
2021/08/24 10:54:20;;;;;;;7.68;3.33;;;;;;;;;;2108842;27;99860;-19
2021/08/24 10:55:26;;;;;;;8.13;2.85;;;;;;;;;;2108985;27;100015;-19
2021/08/24 10:56:45;;;;;;;8.77;3.08;;;;;;;;;;2099374;27;99883;-20
2021/08/24 10:58:05;;;;;;;9.02;3.30;;;;;;;;;;2102033;27;100001;-22
2021/08/24 10:59:24;;;;;;;8.02;3.33;;;;;;;;;;2108754;27;99994;-21
2021/08/24 11:01:04;;;;;;;7.53;2.90;;;;;;;;;;2108340;27;99955;-17
2021/08/24 11:02:20;;;;;;;9.73;2.95;;;;;;;;;;2108377;27;99963;-18
2021/08/24 11:03:59;;;;;;;6.45;3.40;;;;;;;;;;2108338;27;99802;-22
2021/08/24 11:05:41;;;;;;;8.57;2.97;;;;;;;;;;2108289;27;99943;-20
2021/08/24 11:06:57;;;;;;;;;;;;;;;;;;2108686;27;99935;-21
2021/08/24 11:08:04;;;;;;;5.70;3.00;;;;;;;;;;2108490;27;99939;-18
2021/08/24 11:09:17;;;;;;;9.93;3.03;;;;;;;;;;2108580;27;99883;-17
2021/08/24 11:10:30;;;;;;;7.88;3.40;;;;;;;;;;2108400;27;99963;-20
2021/08/24 11:11:53;;;;;;;8.45;3.35;;;;;;;;;;2108644;27;99919;-20
2021/08/24 11:13:12;;;;;;;7.43;3.35;;;;;;;;;;2108897;27;99843;-21
2021/08/24 11:14:39;;;;;;;6.35;2.95;;;;;;;;;;2099454;27;100026;-21
2021/08/24 11:15:43;;;;;;;8.30;3.63;;;;;;;;;;2103724;27;99831;-18
2021/08/24 11:17:14;;;;;;;9.45;3.30;;;;;;;;;;2108874;27;99954;-20
2021/08/24 11:18:37;;;;;;;6.53;3.13;;;;;;;;;;2097333;27;100186;-19
2021/08/24 11:19:53;;;;;;;8.43;3.15;;;;;;;;;;2108990;27;99822;-19
2021/08/24 11:21:09;;;;;;;8.50;3.20;;;;;;;;;;2107821;27;100034;-19
2021/08/24 11:22:31;;;;;;;7.45;3.00;;;;;;;;;;2108047;27;99996;-19
2021/08/24 11:24:01;;;;;;;7.20;2.97;;;;;;;;;;2107786;27;99774;-20
2021/08/24 11:25:31;;;;;;;8.05;3.30;;;;;;;;;;2107763;27;99939;-18
2021/08/24 11:26:41;;;;;;;6.45;3.28;;;;;;;;;;2107996;27;99766;-18
2021/08/24 11:28:06;;;;;;;9.55;3.00;;;;;;;;;;2108138;27;99839;-19
2021/08/24 11:29:32;;;;;;;10.90;3.42;;;;;;;;;;2108071;27;99790;-21
2021/08/24 11:30:40;;;;;;;9.90;3.30;;;;;;;;;;2108119;27;99936;-20
2021/08/24 11:31:57;;;;;;;8.48;3.30;;;;;;;;;;2108050;27;99916;-18
2021/08/24 11:33:07;;;;;;;7.95;3.35;;;;;;;;;;2107650;27;99897;-18
2021/08/24 11:34:14;;;;;;;8.43;3.63;;;;;;;;;;2105914;27;100051;-21
2021/08/24 11:35:28;;;;;;;10.90;3.50;;;;;;;;;;2107872;27;100015;-19
2021/08/24 11:36:39;;;;;;;9.35;3.05;;;;;;;;;;2107877;27;100157;-20
2021/08/24 11:38:03;;;;;;;7.40;3.40;;;;;;;;;;2107922;27;99914;-20
2021/08/24 11:39:11;;;;;;;6.90;2.90;;;;;;;;;;2107948;27;99888;-22
2021/08/24 11:40:16;;;;;;;11.50;3.60;;;;;;;;;;2108079;27;99940;-17
2021/08/24 11:41:22;;;;;;;5.57;2.97;;;;;;;;;;2107771;27;100090;-18
2021/08/24 11:42:29;;;;;;;7.82;3.35;;;;;;;;;;2098710;27;100021;-18
2021/08/24 11:43:42;;;;;;;10.27;3.58;;;;;;;;;;2099696;27;99984;-21
2021/08/24 11:44:55;;;;;;;7.75;3.05;;;;;;;;;;2108714;27;99929;-19
2021/08/24 11:46:01;;;;;;;8.18;3.42;;;;;;;;;;2110509;27;100063;-19
2021/08/24 11:47:09;;;;;;;9.80;3.40;;;;;;;;;;2095916;27;99838;-21
2021/08/24 11:48:32;;;;;;;9.52;3.25;;;;;;;;;;2103827;27;100281;-20
2021/08/24 11:49:49;;;;;;;10.63;3.17;;;;;;;;;;2116332;27;100007;-18
2021/08/24 11:51:06;;;;;;;12.90;3.50;;;;;;;;;;2115486;27;100448;-20
2021/08/24 11:52:34;;;;;;;7.05;3.10;;;;;;;;;;2115684;27;100100;-18
2021/08/24 11:54:02;;;;;;;5.82;2.63;;;;;;;;;;2113934;27;99958;-20
2021/08/24 11:55:13;;;;;;;8.10;2.88;;;;;;;;;;2109210;27;100412;-19
2021/08/24 11:56:32;;;;;;;6.47;2.90;;;;;;;;;;2116358;27;99977;-23
2021/08/24 11:57:40;;;;;;;9.95;3.28;;;;;;;;;;2116448;27;99925;-22
2021/08/24 11:58:47;;;;;;;6.68;3.05;;;;;;;;;;2115829;27;99899;-20
2021/08/24 11:59:54;;;;;;;9.32;3.00;;;;;;;;;;2099689;27;99985;-19
2021/08/24 12:00:57;;;;;;;10.63;3.33;;;;;;;;;;2098856;27;100320;-21
2021/08/24 12:01:58;;;;;;;8.85;3.30;;;;;;;;;;2107773;27;100051;-20
2021/08/24 12:03:07;;;;;;;6.35;3.42;;;;;;;;;;2097975;27;99992;-21
2021/08/24 12:04:11;;;;;;;8.73;3.55;;;;;;;;;;2099147;27;99943;-22
2021/08/24 12:05:20;;;;;;;12.68;3.50;;;;;;;;;;2107521;27;99852;-20
2021/08/24 12:06:28;;;;;;;9.88;3.20;;;;;;;;;;2107512;27;99849;-23
2021/08/24 12:07:35;;;;;;;13.23;3.78;;;;;;;;;;2105760;27;100079;-22
2021/08/24 12:08:56;;;;;;;12.23;3.45;;;;;;;;;;2112446;27;99963;-22
2021/08/24 12:09:57;;;;;;;16.57;4.00;;;;;;;;;;2111308;27;99965;-22
2021/08/24 12:11:06;;;;;;;15.30;4.38;;;;;;;;;;2107360;27;99846;-22
2021/08/24 12:12:14;;;;;;;11.13;4.13;;;;;;;;;;2106142;27;100062;-20
2021/08/24 12:13:29;;;;;;;16.83;5.28;;;;;;;;;;2115868;27;99981;-19
2021/08/24 12:14:38;;;;;;;10.57;4.32;;;;;;;;;;2113761;27;100008;-23
2021/08/24 12:15:45;;;;;;;16.55;4.38;;;;;;;;;;2107848;27;99965;-21
2021/08/24 12:17:15;;;;;;;11.55;4.15;;;;;;;;;;2103643;27;100057;-20
2021/08/24 12:18:19;;;;;;;15.15;4.45;;;;;;;;;;2082994;27;100231;-19
2021/08/24 12:19:23;;;;;;;13.52;4.63;;;;;;;;;;2098605;27;99796;-22
2021/08/24 12:20:45;;;;;;;14.38;4.88;;;;;;;;;;2105512;27;102201;-22
2021/08/24 12:21:58;;;;;;;16.40;6.03;;;;;;;;;;2106888;27;100154;-22
2021/08/24 12:23:01;;;;;;;11.95;4.18;;;;;;;;;;2111168;27;100042;-20
2021/08/24 12:24:50;;;;;;;12.60;4.72;;;;;;;;;;2109599;27;99929;-21
2021/08/24 12:25:51;;;;;;;13.23;4.32;;;;;;;;;;2072619;28;100325;-19
2021/08/24 12:27:12;;;;;;;;;;;;;;;;;;2105928;27;99800;-20
2021/08/24 12:28:16;;;;;;;15.10;4.28;;;;;;;;;;2111954;27;100097;-25
2021/08/24 12:29:32;;;;;;;9.27;4.07;;;;;;;;;;2115981;27;99985;-20
2021/08/24 12:31:01;;;;;;;15.40;4.18;;;;;;;;;;2116192;27;100291;-20
2021/08/24 12:32:20;;;;;;;16.60;4.15;;;;;;;;;;2115888;27;99997;-17
2021/08/24 12:33:32;;;;;;;13.65;4.13;;;;;;;;;;2110257;27;100446;-19
2021/08/24 12:34:33;;;;;;;9.43;3.60;;;;;;;;;;2105661;27;100200;-20
2021/08/24 12:35:38;;;;;;;;;;;;;;;;;;2099066;27;100132;-21
2021/08/24 12:36:46;;;;;;;15.38;3.67;;;;;;;;;;2098475;27;99825;-18
2021/08/24 12:37:52;;;;;;;8.93;2.88;;;;;;;;;;2098238;27;100043;-18
2021/08/24 12:39:00;;;;;;;9.30;3.35;;;;;;;;;;2104949;27;100149;-19
2021/08/24 12:40:11;;;;;;;10.38;3.80;;;;;;;;;;2108358;27;100013;-20
2021/08/24 12:41:36;;;;;;;7.28;3.17;;;;;;;;;;2098679;27;100002;-18
2021/08/24 12:42:40;;;;;;;10.48;3.63;;;;;;;;;;2105575;27;100096;-18
2021/08/24 12:43:45;;;;;;;7.90;3.28;;;;;;;;;;2106821;27;100107;-19
2021/08/24 12:44:50;;;;;;;11.88;3.50;;;;;;;;;;2101352;27;100036;-20
2021/08/24 12:46:19;;;;;;;8.73;3.33;;;;;;;;;;2104228;27;100007;-21
2021/08/24 12:47:32;;;;;;;8.00;3.08;;;;;;;;;;2097983;27;99944;-19
2021/08/24 12:48:32;;;;;;;6.97;3.28;;;;;;;;;;2099591;27;99863;-18
2021/08/24 12:49:33;;;;;;;;;;;;;;;;;;2107351;27;100053;-19
2021/08/24 12:50:34;;;;;;;7.45;2.97;;;;;;;;;;2106664;27;100043;-19
2021/08/24 12:51:42;;;;;;;10.93;3.65;;;;;;;;;;2106849;27;100035;-19
2021/08/24 12:52:51;;;;;;;10.27;3.85;;;;;;;;;;2107079;27;99943;-19
2021/08/24 12:53:53;;;;;;;8.02;3.65;;;;;;;;;;2106928;27;99937;-19
2021/08/24 12:55:03;;;;;;;6.50;2.92;;;;;;;;;;2106993;27;100131;-21
2021/08/24 12:56:05;;;;;;;10.38;3.30;;;;;;;;;;2107490;27;100262;-22
2021/08/24 12:57:06;;;;;;;10.43;3.55;;;;;;;;;;2098772;27;100057;-19
2021/08/24 12:58:19;;;;;;;7.05;3.20;;;;;;;;;;2098677;27;100466;-19
2021/08/24 12:59:33;;;;;;;10.93;3.90;;;;;;;;;;2098339;27;99883;-20
2021/08/24 13:00:37;;;;;;;12.40;3.63;;;;;;;;;;2098282;27;100618;-21
2021/08/24 13:01:39;;;;;;;9.77;3.95;;;;;;;;;;2109203;27;102102;-18
2021/08/24 13:02:41;;;;;;;10.27;3.58;;;;;;;;;;2108918;27;100075;-19
2021/08/24 13:04:12;;;;;;;7.90;2.90;;;;;;;;;;2097729;27;100156;-22
2021/08/24 13:05:13;;;;;;;8.55;3.05;;;;;;;;;;2084861;27;100046;-19
2021/08/24 13:06:25;;;;;;;11.57;3.47;;;;;;;;;;2089558;27;100061;-22
2021/08/24 13:07:42;;;;;;;6.88;3.28;;;;;;;;;;2098944;27;100109;-18
2021/08/24 13:08:44;;;;;;;9.48;3.20;;;;;;;;;;2108791;27;100389;-19
2021/08/24 13:09:50;;;;;;;7.18;3.05;;;;;;;;;;2099271;27;100022;-20
2021/08/24 13:11:14;;;;;;;8.40;3.00;;;;;;;;;;2098570;27;99952;-19
2021/08/24 13:12:32;;;;;;;8.38;2.95;;;;;;;;;;2097647;27;100110;-23
2021/08/24 13:13:35;;;;;;;6.35;2.83;;;;;;;;;;2083104;27;99907;-21
2021/08/24 13:14:53;;;;;;;6.68;3.00;;;;;;;;;;2092166;27;100092;-20
2021/08/24 13:16:08;;;;;;;8.45;3.20;;;;;;;;;;2106671;27;99922;-19
2021/08/24 13:17:14;;;;;;;11.25;3.40;;;;;;;;;;2108200;27;100238;-23
2021/08/24 13:18:24;;;;;;;7.30;2.60;;;;;;;;;;2098229;27;99987;-17
2021/08/24 13:19:29;;;;;;;6.28;3.42;;;;;;;;;;2098388;27;100014;-18
2021/08/24 13:20:35;;;;;;;8.75;2.85;;;;;;;;;;2106636;27;100002;-22
2021/08/24 13:21:48;;;;;;;5.45;2.80;;;;;;;;;;2095136;27;100617;-22
2021/08/24 13:23:03;;;;;;;9.05;3.17;;;;;;;;;;2093437;27;99900;-19
2021/08/24 13:24:15;;;;;;;7.00;2.92;;;;;;;;;;2106805;27;99988;-20
2021/08/24 13:25:20;;;;;;;7.60;3.47;;;;;;;;;;2106790;27;99961;-20
2021/08/24 13:26:30;;;;;;;12.02;3.35;;;;;;;;;;2106809;27;100548;-20
2021/08/24 13:27:37;;;;;;;8.27;3.72;;;;;;;;;;2106980;27;99875;-21
2021/08/24 13:28:38;;;;;;;10.52;3.10;;;;;;;;;;2106841;27;99956;-21
2021/08/24 13:29:41;;;;;;;9.70;3.40;;;;;;;;;;2113745;27;100051;-21
2021/08/24 13:30:47;;;;;;;6.85;3.15;;;;;;;;;;2114063;27;100005;-20
2021/08/24 13:32:00;;;;;;;10.85;3.42;;;;;;;;;;2097706;27;99988;-21
2021/08/24 13:33:05;;;;;;;6.35;3.10;;;;;;;;;;2100910;27;99994;-23
2021/08/24 13:34:17;;;;;;;11.88;3.13;;;;;;;;;;2104700;27;99942;-21
2021/08/24 13:35:24;;;;;;;8.50;2.80;;;;;;;;;;2104260;27;100006;-21
2021/08/24 13:36:46;;;;;;;8.60;2.95;;;;;;;;;;2106830;27;99979;-20
2021/08/24 13:37:48;;;;;;;11.35;3.38;;;;;;;;;;2089420;27;100195;-19
2021/08/24 13:38:54;;;;;;;6.85;3.38;;;;;;;;;;2097288;27;100549;-20
2021/08/24 13:39:58;;;;;;;10.57;3.38;;;;;;;;;;2104334;27;100045;-19
2021/08/24 13:41:28;;;;;;;10.82;3.55;;;;;;;;;;2115091;27;100034;-19
2021/08/24 13:42:29;;;;;;;7.72;3.45;;;;;;;;;;2066662;28;100084;-19
2021/08/24 13:43:30;;;;;;;8.80;2.92;;;;;;;;;;2110161;27;100082;-22
2021/08/24 13:44:39;;;;;;;7.43;2.70;;;;;;;;;;2109871;27;100035;-23
2021/08/24 13:45:45;;;;;;;9.00;3.15;;;;;;;;;;2104030;27;100097;-19
2021/08/24 13:46:57;;;;;;;6.47;3.00;;;;;;;;;;2098903;27;99962;-20
2021/08/24 13:48:01;;;;;;;6.78;3.33;;;;;;;;;;2097350;27;100334;-21
2021/08/24 13:49:12;;;;;;;7.75;2.80;;;;;;;;;;2085181;27;100320;-23
2021/08/24 13:50:26;;;;;;;9.77;3.03;;;;;;;;;;2096679;27;99997;-19
2021/08/24 13:51:28;;;;;;;8.60;2.75;;;;;;;;;;2110822;27;99983;-19
2021/08/24 13:52:37;;;;;;;5.53;2.88;;;;;;;;;;2110393;27;99837;-21
2021/08/24 13:53:59;;;;;;;8.32;2.80;;;;;;;;;;2113084;27;100004;-20
2021/08/24 13:55:04;;;;;;;5.60;2.63;;;;;;;;;;2104813;27;100510;-20
2021/08/24 13:56:07;;;;;;;5.95;3.03;;;;;;;;;;2106645;27;99934;-20
2021/08/24 13:57:12;;;;;;;5.93;2.85;;;;;;;;;;2106415;27;100007;-21
2021/08/24 13:58:18;;;;;;;6.38;2.63;;;;;;;;;;2108397;27;100808;-20
2021/08/24 13:59:27;;;;;;;7.57;3.00;;;;;;;;;;2107688;27;100158;-23
2021/08/24 14:00:28;;;;;;;9.48;2.50;;;;;;;;;;2113337;27;100089;-18
2021/08/24 14:01:32;;;;;;;8.43;2.90;;;;;;;;;;2110934;27;99832;-20
2021/08/24 14:02:39;;;;;;;7.95;3.08;;;;;;;;;;2104672;27;100685;-19
2021/08/24 14:03:55;;;;;;;4.60;2.67;;;;;;;;;;2101498;27;100021;-18
2021/08/24 14:04:56;;;;;;;3.75;2.33;;;;;;;;;;2105992;27;100091;-18
2021/08/24 14:05:59;;;;;;;9.82;3.45;;;;;;;;;;2108490;27;99911;-18
2021/08/24 14:07:04;;;;;;;5.32;3.13;;;;;;;;;;2111337;27;100045;-18
2021/08/24 14:08:05;;;;;;;3.75;2.53;;;;;;;;;;2105898;27;100667;-20
2021/08/24 14:09:16;;;;;;;;;;;;;;;;;;2101663;27;100106;-18
2021/08/24 14:10:19;;;;;;;7.38;2.92;;;;;;;;;;2113103;27;100075;-21
2021/08/24 14:11:22;;;;;;;6.57;2.95;;;;;;;;;;2112144;27;100158;-21
2021/08/24 14:12:26;;;;;;;9.05;2.88;;;;;;;;;;2112571;27;100391;-21
2021/08/24 14:13:36;;;;;;;9.02;2.92;;;;;;;;;;2107982;27;99983;-21
2021/08/24 14:14:42;;;;;;;7.50;2.95;;;;;;;;;;2108240;27;99928;-20
2021/08/24 14:15:48;;;;;;;5.20;2.70;;;;;;;;;;2114977;27;99999;-21
2021/08/24 14:16:49;;;;;;;9.02;3.03;;;;;;;;;;2110454;27;99968;-18
2021/08/24 14:17:56;;;;;;;9.20;2.92;;;;;;;;;;2116103;27;100262;-21
2021/08/24 14:19:04;;;;;;;7.68;2.63;;;;;;;;;;2106572;27;99985;-18
2021/08/24 14:20:18;;;;;;;5.97;2.92;;;;;;;;;;2114992;27;99936;-19
2021/08/24 14:21:20;;;;;;;6.00;2.55;;;;;;;;;;2111569;27;100092;-21
2021/08/24 14:22:23;;;;;;;5.45;2.60;;;;;;;;;;2112584;27;100034;-20
2021/08/24 14:23:32;;;;;;;5.40;3.00;;;;;;;;;;2103201;27;100078;-20
2021/08/24 14:24:35;;;;;;;5.88;2.83;;;;;;;;;;2108213;27;100981;-17
2021/08/24 14:25:39;;;;;;;7.53;2.63;;;;;;;;;;2116773;27;99977;-21
2021/08/24 14:26:47;;;;;;;7.82;3.00;;;;;;;;;;2116581;27;99951;-18
2021/08/24 14:27:49;;;;;;;7.40;2.85;;;;;;;;;;2104048;27;100069;-20
2021/08/24 14:28:52;;;;;;;7.03;2.67;;;;;;;;;;2099642;27;99969;-19
2021/08/24 14:29:55;;;;;;;6.63;3.08;;;;;;;;;;2107823;27;100023;-17
2021/08/24 14:30:58;;;;;;;7.93;3.28;;;;;;;;;;2102086;27;100071;-18
2021/08/24 14:31:59;;;;;;;7.75;2.53;;;;;;;;;;2090075;27;99953;-18
2021/08/24 14:33:21;;;;;;;8.05;2.88;;;;;;;;;;2089784;27;99905;-19
2021/08/24 14:34:28;;;;;;;11.18;3.15;;;;;;;;;;2099551;27;99872;-18
2021/08/24 14:35:55;;;;;;;6.50;2.83;;;;;;;;;;2098488;27;99906;-19
2021/08/24 14:37:04;;;;;;;8.68;3.40;;;;;;;;;;2107882;27;100347;-22
2021/08/24 14:38:05;;;;;;;7.28;3.03;;;;;;;;;;2107159;27;100102;-20
2021/08/24 14:39:05;;;;;;;;;;;;;;;;;;2100514;27;100203;-20
2021/08/24 14:40:11;;;;;;;7.18;3.08;;;;;;;;;;2100786;27;100072;-21
2021/08/24 14:41:14;;;;;;;7.80;3.08;;;;;;;;;;2099079;27;99899;-20
2021/08/24 14:42:38;;;;;;;5.93;2.95;;;;;;;;;;2099612;27;99991;-22
2021/08/24 14:43:44;;;;;;;6.75;2.85;;;;;;;;;;2104708;27;99861;-21
2021/08/24 14:44:45;;;;;;;8.73;2.88;;;;;;;;;;2104108;27;100089;-21
2021/08/24 14:45:54;;;;;;;6.72;2.97;;;;;;;;;;2089670;27;100178;-21
2021/08/24 14:47:02;;;;;;;7.88;2.95;;;;;;;;;;2096593;27;100084;-21
2021/08/24 14:48:08;;;;;;;9.02;3.20;;;;;;;;;;2107868;27;100109;-20
2021/08/24 14:49:19;;;;;;;8.32;2.72;;;;;;;;;;2107938;27;99870;-22
2021/08/24 14:50:43;;;;;;;6.15;2.92;;;;;;;;;;2108028;27;99919;-21
2021/08/24 14:51:45;;;;;;;7.78;2.63;;;;;;;;;;2106103;27;100168;-21
2021/08/24 14:52:52;;;;;;;7.03;3.05;;;;;;;;;;2114963;27;100064;-17
2021/08/24 14:53:57;;;;;;;7.68;3.15;;;;;;;;;;2116310;27;99958;-22
2021/08/24 14:55:14;;;;;;;6.43;2.90;;;;;;;;;;2103910;27;100011;-22
2021/08/24 14:56:35;;;;;;;7.57;2.83;;;;;;;;;;2100559;27;100078;-19
2021/08/24 14:57:47;;;;;;;6.72;2.92;;;;;;;;;;2113534;27;100014;-19
2021/08/24 14:59:13;;;;;;;6.22;2.78;;;;;;;;;;2116676;27;100025;-21
2021/08/24 15:00:31;;;;;;;11.45;2.90;;;;;;;;;;2116197;27;99905;-22
2021/08/24 15:01:32;;;;;;;10.70;3.28;;;;;;;;;;2116294;27;99906;-21
2021/08/24 15:02:45;;;;;;;12.13;2.85;;;;;;;;;;2116501;27;100023;-21
2021/08/24 15:03:57;;;;;;;11.38;3.42;;;;;;;;;;2116103;27;99969;-21
2021/08/24 15:05:13;;;;;;;5.75;3.10;;;;;;;;;;2116580;27;100057;-20
2021/08/24 15:06:36;;;;;;;8.55;2.80;;;;;;;;;;2115914;27;100036;-18
2021/08/24 15:08:04;;;;;;;4.97;2.63;;;;;;;;;;2088692;27;100117;-22
2021/08/24 15:09:29;;;;;;;7.05;2.60;;;;;;;;;;2098290;27;100015;-19
2021/08/24 15:10:30;;;;;;;7.47;2.78;;;;;;;;;;2107789;27;99961;-20
2021/08/24 15:11:38;;;;;;;8.55;3.20;;;;;;;;;;2107952;27;99948;-21
2021/08/24 15:12:43;;;;;;;13.23;3.00;;;;;;;;;;2107915;27;99895;-20
2021/08/24 15:14:30;;;;;;;8.85;3.15;;;;;;;;;;2098680;27;100053;-21
2021/08/24 15:15:35;;;;;;;8.95;3.10;;;;;;;;;;2072986;28;100141;-21
2021/08/24 15:16:38;;;;;;;10.88;3.30;;;;;;;;;;2073023;28;100134;-20
2021/08/24 15:17:48;;;;;;;6.43;2.72;;;;;;;;;;2072561;28;100047;-18
2021/08/24 15:18:52;;;;;;;9.52;3.00;;;;;;;;;;2073255;28;100145;-20
2021/08/24 15:20:05;;;;;;;5.70;3.10;;;;;;;;;;2073255;28;100118;-20
2021/08/24 15:21:08;;;;;;;8.82;3.17;;;;;;;;;;2086811;27;100004;-19
2021/08/24 15:22:21;;;;;;;9.38;2.70;;;;;;;;;;2099516;27;99932;-21
2021/08/24 15:23:25;;;;;;;13.02;3.10;;;;;;;;;;2099464;27;99887;-22
2021/08/24 15:24:27;;;;;;;6.38;2.40;;;;;;;;;;2099531;27;100126;-20
2021/08/24 15:25:38;;;;;;;7.45;3.03;;;;;;;;;;2090341;27;100029;-23
2021/08/24 15:26:53;;;;;;;8.32;2.95;;;;;;;;;;2091684;27;100303;-20
2021/08/24 15:28:00;;;;;;;10.82;3.17;;;;;;;;;;2099669;27;99990;-18
2021/08/24 15:29:03;;;;;;;7.15;2.53;;;;;;;;;;2099402;27;99942;-20
2021/08/24 15:30:25;;;;;;;8.15;3.05;;;;;;;;;;2099370;27;100163;-21
2021/08/24 15:31:25;;;;;;;7.70;3.08;;;;;;;;;;2102071;27;101297;-26
2021/08/24 15:32:26;;;;;;;;;;;;;;;;;;2107922;27;100047;-22
2021/08/24 15:33:52;;;;;;;6.13;2.80;;;;;;;;;;2098701;27;100026;-22
2021/08/24 15:34:55;;;;;;;7.78;3.10;;;;;;;;;;2102056;27;99983;-17
2021/08/24 15:35:56;;;;;;;10.52;2.88;;;;;;;;;;2107754;27;99943;-20
2021/08/24 15:36:57;;;;;;;10.50;2.67;;;;;;;;;;2109533;27;100032;-19
2021/08/24 15:38:00;;;;;;;9.90;2.88;;;;;;;;;;2098039;27;100077;-19
2021/08/24 15:39:06;;;;;;;9.48;2.95;;;;;;;;;;2099145;27;99966;-19
2021/08/24 15:40:11;;;;;;;9.88;3.00;;;;;;;;;;2116210;27;99893;-20
2021/08/24 15:41:16;;;;;;;10.15;3.10;;;;;;;;;;2097823;27;100119;-19
2021/08/24 15:42:23;;;;;;;12.90;2.78;;;;;;;;;;2099662;27;100078;-21
2021/08/24 15:43:31;;;;;;;5.93;2.95;;;;;;;;;;2116065;27;99941;-21
2021/08/24 15:44:32;;;;;;;10.52;3.35;;;;;;;;;;2116408;27;99973;-21
2021/08/24 15:45:35;;;;;;;7.70;3.17;;;;;;;;;;2115667;27;100310;-20
2021/08/24 15:46:38;;;;;;;10.43;3.08;;;;;;;;;;2115988;27;99970;-20
2021/08/24 15:47:39;;;;;;;11.35;3.00;;;;;;;;;;2116189;27;100051;-18
2021/08/24 15:48:40;;;;;;;;;;;;;;;;;;2116474;27;99918;-18
2021/08/24 15:49:41;;;;;;;7.60;3.00;;;;;;;;;;2106315;27;100005;-20
2021/08/24 15:50:42;;;;;;;8.85;3.17;;;;;;;;;;2106710;27;99932;-18
2021/08/24 15:51:46;;;;;;;;;;;;;;;;;;2116092;27;100169;-19
2021/08/24 15:52:47;;;;;;;10.05;3.05;;;;;;;;;;2115885;27;99961;-22
2021/08/24 15:53:48;;;;;;;;;;;;;;;;;;2115445;27;103037;-19
2021/08/24 15:54:49;;;;;;;10.02;3.00;;;;;;;;;;2107602;27;100050;-20
2021/08/24 15:55:54;;;;;;;10.52;2.85;;;;;;;;;;2107223;27;99992;-18
2021/08/24 15:56:56;;;;;;;9.23;2.90;;;;;;;;;;2098192;27;100134;-21
2021/08/24 15:57:58;;;;;;;9.38;3.00;;;;;;;;;;2098308;27;101339;-21
2021/08/24 15:58:59;;;;;;;6.70;3.10;;;;;;;;;;2107130;27;99963;-19
2021/08/24 16:00:00;;;;;;;8.15;2.95;;;;;;;;;;2107203;27;99929;-20
2021/08/24 16:01:02;;;;;;;7.55;2.55;;;;;;;;;;2107281;27;99973;-21
2021/08/24 16:02:07;;;;;;;10.15;3.00;;;;;;;;;;2106996;27;100058;-20
2021/08/24 16:03:10;;;;;;;11.88;3.03;;;;;;;;;;2097284;27;100092;-21
2021/08/24 16:04:11;;;;;;;7.82;2.90;;;;;;;;;;2097805;27;100038;-21
2021/08/24 16:05:16;;;;;;;6.25;2.90;;;;;;;;;;2097987;27;100034;-21
2021/08/24 16:06:17;;;;;;;9.32;3.42;;;;;;;;;;2098788;27;100589;-22
2021/08/24 16:07:23;;;;;;;7.82;3.30;;;;;;;;;;2107288;27;100495;-22
2021/08/24 16:08:24;;;;;;;13.82;3.08;;;;;;;;;;2107250;27;100258;-21
2021/08/24 16:09:25;;;;;;;6.28;2.90;;;;;;;;;;2107445;27;100491;-19
2021/08/24 16:10:28;;;;;;;;;;;;;;;;;;2098707;27;100426;-22
2021/08/24 16:11:41;;;;;;;6.28;2.75;;;;;;;;;;2098760;27;100021;-22
2021/08/24 16:12:42;;;;;;;9.13;3.10;;;;;;;;;;2106506;27;99938;-20
2021/08/24 16:13:43;;;;;;;7.53;3.08;;;;;;;;;;2106735;27;100041;-20
2021/08/24 16:14:44;;;;;;;6.03;2.83;;;;;;;;;;2115622;27;99974;-21
2021/08/24 16:15:45;;;;;;;;;;;;;;;;;;2116537;27;99942;-20